Time;durP1;ratioP1;P1;durP2;ratioP2;P2;SDS_P1;SDS_P2;PMS_P1;PMS_P2;Temp;Humidity;BMP_temperature;BMP_pressure;BME280_temperature;BME280_humidity;BME280_pressure;Samples;Min_cycle;Max_cycle;Signal;HPM_P1;HPM_P2
2021/04/10 00:02:05;;;;;;;14.05;12.75;;;;;;;;;;5044181;28;20250;-43
2021/04/10 00:04:31;;;;;;;12.73;11.60;;;;;;;;;;5046810;28;20170;-43
2021/04/10 00:06:56;;;;;;;12.83;11.60;;;;;;;;;;5049737;28;20943;-43
2021/04/10 00:09:21;;;;;;;12.00;10.80;;;;;;;;;;5051883;28;20655;-43
2021/04/10 00:11:46;;;;;;;12.13;10.93;;;;;;;;;;5051046;28;20240;-42
2021/04/10 00:14:13;;;;;;;11.23;10.23;;;;;;;;;;5040422;28;20186;-43
2021/04/10 00:16:38;;;;;;;12.30;11.00;;;;;;;;;;5047294;28;20200;-43
2021/04/10 00:19:03;;;;;;;14.30;10.87;;;;;;;;;;5050496;28;21057;-43
2021/04/10 00:21:28;;;;;;;13.13;11.33;;;;;;;;;;5032346;28;20175;-43
2021/04/10 00:23:54;;;;;;;12.77;11.40;;;;;;;;;;5050062;28;20223;-43
2021/04/10 00:26:19;;;;;;;12.10;10.10;;;;;;;;;;5048901;28;20197;-43
2021/04/10 00:28:44;;;;;;;10.60;9.60;;;;;;;;;;5039985;28;20245;-41
2021/04/10 00:31:09;;;;;;;10.85;9.95;;;;;;;;;;5051510;28;20218;-42
2021/04/10 00:33:38;;;;;;;11.27;10.03;;;;;;;;;;5048743;28;20252;-43
2021/04/10 00:36:04;;;;;;;10.60;9.60;;;;;;;;;;5033843;28;20179;-42
2021/04/10 00:38:30;;;;;;;10.90;9.93;;;;;;;;;;5044587;28;20600;-43
2021/04/10 00:40:55;;;;;;;11.10;10.10;;;;;;;;;;5034640;28;20197;-43
2021/04/10 00:43:21;;;;;;;10.63;9.63;;;;;;;;;;5044747;28;20264;-42
2021/04/10 00:45:46;;;;;;;10.90;9.90;;;;;;;;;;5038605;28;20172;-43
2021/04/10 00:48:11;;;;;;;10.55;9.50;;;;;;;;;;5041833;28;20240;-42
2021/04/10 00:50:36;;;;;;;11.48;9.30;;;;;;;;;;5044300;28;20191;-43
2021/04/10 00:53:01;;;;;;;11.07;9.98;;;;;;;;;;5040761;28;20205;-43
2021/04/10 00:55:27;;;;;;;10.07;9.20;;;;;;;;;;5041006;28;20366;-43
2021/04/10 00:57:52;;;;;;;10.00;9.10;;;;;;;;;;5037639;28;20203;-43
2021/04/10 01:00:17;;;;;;;10.87;9.83;;;;;;;;;;5038391;28;20215;-43
2021/04/10 01:02:42;;;;;;;10.57;9.67;;;;;;;;;;5043507;28;20172;-43
2021/04/10 01:05:08;;;;;;;11.60;10.40;;;;;;;;;;5045166;28;20179;-43
2021/04/10 01:07:33;;;;;;;11.93;10.70;;;;;;;;;;5049783;28;20550;-43
2021/04/10 01:09:59;;;;;;;15.07;10.50;;;;;;;;;;5036462;28;20601;-43
2021/04/10 01:12:40;;;;;;;11.67;10.47;;;;;;;;;;5037954;28;20290;-43
2021/04/10 01:15:20;;;;;;;12.30;11.20;;;;;;;;;;5040992;28;20167;-43
2021/04/10 01:18:04;;;;;;;11.77;10.67;;;;;;;;;;5046657;28;20691;-43
2021/04/10 01:20:48;;;;;;;11.93;10.80;;;;;;;;;;5050025;28;20618;-43
2021/04/10 01:23:21;;;;;;;11.40;10.30;;;;;;;;;;5050006;28;20657;-43
2021/04/10 01:25:46;;;;;;;12.00;10.90;;;;;;;;;;5040899;28;20641;-43
2021/04/10 01:28:40;;;;;;;11.80;10.60;;;;;;;;;;5048214;28;21420;-43
2021/04/10 01:31:05;;;;;;;11.20;10.10;;;;;;;;;;5044798;28;20276;-43
2021/04/10 01:33:32;;;;;;;10.33;9.43;;;;;;;;;;5049879;28;20705;-43
2021/04/10 01:35:59;;;;;;;11.37;10.17;;;;;;;;;;5042960;28;20231;-44
2021/04/10 01:38:27;;;;;;;10.73;9.73;;;;;;;;;;5046916;28;20603;-44
2021/04/10 01:40:53;;;;;;;10.53;9.43;;;;;;;;;;5042467;28;21246;-44
2021/04/10 01:43:18;;;;;;;11.67;9.90;;;;;;;;;;5045996;28;20702;-43
2021/04/10 01:45:44;;;;;;;13.60;11.10;;;;;;;;;;5044032;28;20646;-43
2021/04/10 01:48:11;;;;;;;10.30;9.40;;;;;;;;;;5047649;28;20196;-42
2021/04/10 01:50:36;;;;;;;10.43;9.53;;;;;;;;;;5043878;28;20645;-43
2021/04/10 01:53:02;;;;;;;11.23;10.13;;;;;;;;;;5048538;28;20647;-43
2021/04/10 01:55:28;;;;;;;10.93;9.17;;;;;;;;;;5043316;28;20299;-42
2021/04/10 01:57:54;;;;;;;12.53;11.23;;;;;;;;;;5032966;28;20184;-42
2021/04/10 02:00:20;;;;;;;10.47;9.47;;;;;;;;;;5040781;28;20828;-42
2021/04/10 02:02:46;;;;;;;12.80;10.40;;;;;;;;;;5031619;28;20237;-41
2021/04/10 02:05:12;;;;;;;11.20;10.10;;;;;;;;;;5036031;28;20606;-42
2021/04/10 02:07:38;;;;;;;11.87;10.47;;;;;;;;;;5049641;28;20194;-42
2021/04/10 02:10:04;;;;;;;15.33;10.53;;;;;;;;;;5045309;28;21448;-42
2021/04/10 02:12:30;;;;;;;11.47;10.30;;;;;;;;;;5040368;28;20643;-42
2021/04/10 02:14:57;;;;;;;10.70;9.73;;;;;;;;;;5048608;28;21137;-42
2021/04/10 02:17:23;;;;;;;11.03;10.03;;;;;;;;;;5048248;28;21444;-42
2021/04/10 02:19:48;;;;;;;11.23;10.13;;;;;;;;;;5047432;28;20721;-42
2021/04/10 02:22:14;;;;;;;11.30;10.00;;;;;;;;;;5045180;28;20270;-42
2021/04/10 02:24:40;;;;;;;11.73;9.50;;;;;;;;;;5044125;28;20188;-42
2021/04/10 02:27:05;;;;;;;12.47;10.47;;;;;;;;;;5048185;28;20764;-42
2021/04/10 02:29:30;;;;;;;10.60;9.60;;;;;;;;;;5034111;28;20185;-41
2021/04/10 02:32:07;;;;;;;14.00;11.57;;;;;;;;;;5043142;28;20206;-42
2021/04/10 02:34:34;;;;;;;12.97;9.90;;;;;;;;;;5047861;28;20185;-42
2021/04/10 02:37:00;;;;;;;12.47;11.17;;;;;;;;;;5048690;28;20594;-42
2021/04/10 02:39:26;;;;;;;14.00;11.67;;;;;;;;;;5045769;28;20600;-42
2021/04/10 02:41:53;;;;;;;13.17;11.23;;;;;;;;;;5036811;28;20283;-42
2021/04/10 02:44:23;;;;;;;12.77;11.30;;;;;;;;;;5038969;28;20234;-42
2021/04/10 02:46:49;;;;;;;12.27;11.07;;;;;;;;;;5048946;28;21410;-42
2021/04/10 02:49:15;;;;;;;12.50;11.20;;;;;;;;;;5046287;28;20605;-42
2021/04/10 02:51:42;;;;;;;11.50;10.40;;;;;;;;;;5048447;28;20654;-42
2021/04/10 02:54:07;;;;;;;12.43;11.23;;;;;;;;;;5044388;28;20605;-42
2021/04/10 02:56:34;;;;;;;12.43;10.90;;;;;;;;;;5040705;28;20747;-42
2021/04/10 02:59:00;;;;;;;12.00;10.73;;;;;;;;;;5029799;28;20655;-42
2021/04/10 03:01:28;;;;;;;11.80;10.60;;;;;;;;;;5042494;28;20603;-42
2021/04/10 03:03:53;;;;;;;12.37;10.37;;;;;;;;;;5046493;28;20625;-42
2021/04/10 03:06:18;;;;;;;12.23;11.10;;;;;;;;;;5047927;28;20642;-41
2021/04/10 03:08:45;;;;;;;12.83;11.67;;;;;;;;;;5046123;28;20180;-42
2021/04/10 03:11:10;;;;;;;12.40;11.10;;;;;;;;;;5034333;28;20188;-41
2021/04/10 03:13:37;;;;;;;14.33;12.30;;;;;;;;;;5048045;28;21217;-42
2021/04/10 03:16:02;;;;;;;12.20;10.93;;;;;;;;;;5046521;28;20192;-42
2021/04/10 03:18:28;;;;;;;13.60;11.90;;;;;;;;;;5047898;28;20591;-42
2021/04/10 03:20:53;;;;;;;12.50;11.20;;;;;;;;;;5046871;28;20264;-42
2021/04/10 03:23:18;;;;;;;14.87;12.10;;;;;;;;;;5033039;28;20212;-42
2021/04/10 03:25:44;;;;;;;12.43;11.13;;;;;;;;;;5048122;28;20234;-49
2021/04/10 03:28:10;;;;;;;13.93;12.47;;;;;;;;;;5042776;28;20201;-42
2021/04/10 03:30:36;;;;;;;12.30;11.00;;;;;;;;;;5043213;28;20291;-42
2021/04/10 03:33:02;;;;;;;13.17;11.30;;;;;;;;;;5048521;28;21135;-42
2021/04/10 03:35:27;;;;;;;13.00;11.57;;;;;;;;;;5045160;28;20182;-42
2021/04/10 03:37:54;;;;;;;13.23;11.87;;;;;;;;;;5040027;28;20589;-42
2021/04/10 03:40:19;;;;;;;12.30;10.80;;;;;;;;;;5048351;28;20283;-42
2021/04/10 03:42:44;;;;;;;13.47;11.80;;;;;;;;;;5052377;28;20682;-42
2021/04/10 03:45:11;;;;;;;16.27;12.97;;;;;;;;;;5048889;28;20214;-42
2021/04/10 03:47:36;;;;;;;13.50;12.20;;;;;;;;;;5039887;28;20184;-42
2021/04/10 03:50:02;;;;;;;15.70;13.43;;;;;;;;;;5048187;28;20626;-42
2021/04/10 03:52:27;;;;;;;14.13;12.70;;;;;;;;;;5036000;28;20335;-43
2021/04/10 03:54:52;;;;;;;14.95;12.90;;;;;;;;;;5035435;28;20698;-42
2021/04/10 03:57:17;;;;;;;14.73;13.23;;;;;;;;;;5048657;28;20971;-42
2021/04/10 03:59:42;;;;;;;15.63;12.17;;;;;;;;;;5048541;28;20180;-42
2021/04/10 04:02:08;;;;;;;11.60;10.57;;;;;;;;;;5043871;28;20564;-42
2021/04/10 04:04:33;;;;;;;13.00;11.80;;;;;;;;;;5050337;28;20260;-42
2021/04/10 04:06:58;;;;;;;12.27;11.02;;;;;;;;;;5050043;28;20642;-42
2021/04/10 04:09:23;;;;;;;13.57;11.83;;;;;;;;;;5050051;28;20257;-42
2021/04/10 04:11:48;;;;;;;13.43;12.23;;;;;;;;;;5051183;28;20670;-41
2021/04/10 04:14:13;;;;;;;13.70;12.23;;;;;;;;;;5038374;28;20832;-41
2021/04/10 04:16:39;;;;;;;14.18;12.40;;;;;;;;;;5047917;28;20196;-43
2021/04/10 04:19:04;;;;;;;13.18;11.88;;;;;;;;;;5050991;28;20178;-42
2021/04/10 04:21:29;;;;;;;13.35;11.98;;;;;;;;;;5044413;28;20255;-42
2021/04/10 04:23:54;;;;;;;14.00;12.60;;;;;;;;;;5049007;28;20172;-42
2021/04/10 04:26:19;;;;;;;15.73;13.57;;;;;;;;;;5043484;28;20179;-43
2021/04/10 04:28:44;;;;;;;16.40;13.63;;;;;;;;;;5037875;28;20199;-42
2021/04/10 04:31:09;;;;;;;16.48;14.80;;;;;;;;;;5048710;28;20208;-43
2021/04/10 04:33:35;;;;;;;17.27;15.50;;;;;;;;;;5047885;28;20174;-42
2021/04/10 04:36:00;;;;;;;17.92;15.48;;;;;;;;;;5051633;28;20197;-42
2021/04/10 04:38:25;;;;;;;15.75;13.95;;;;;;;;;;5046922;28;20261;-42
2021/04/10 04:40:51;;;;;;;13.80;12.23;;;;;;;;;;5049922;28;20191;-42
2021/04/10 04:43:16;;;;;;;15.17;13.60;;;;;;;;;;5049686;28;20207;-42
2021/04/10 04:45:41;;;;;;;15.13;13.53;;;;;;;;;;5050996;28;20581;-42
2021/04/10 04:48:06;;;;;;;16.13;14.43;;;;;;;;;;5050460;28;20229;-42
2021/04/10 04:50:31;;;;;;;17.70;13.87;;;;;;;;;;5046308;28;20547;-43
2021/04/10 04:52:57;;;;;;;14.40;12.90;;;;;;;;;;5048431;28;20192;-42
2021/04/10 04:55:22;;;;;;;14.38;12.88;;;;;;;;;;5045059;28;20216;-43
2021/04/10 04:57:47;;;;;;;14.93;13.38;;;;;;;;;;5049457;28;20173;-42
2021/04/10 05:00:12;;;;;;;14.15;12.80;;;;;;;;;;5047421;28;20189;-42
2021/04/10 05:02:38;;;;;;;16.00;12.77;;;;;;;;;;5045057;28;20222;-42
2021/04/10 05:05:03;;;;;;;14.67;13.20;;;;;;;;;;5045775;28;20558;-42
2021/04/10 05:07:28;;;;;;;14.93;13.03;;;;;;;;;;5050693;28;21578;-43
2021/04/10 05:09:54;;;;;;;13.30;12.10;;;;;;;;;;5050918;28;20577;-42
2021/04/10 05:12:19;;;;;;;16.00;14.30;;;;;;;;;;5035902;28;20220;-42
2021/04/10 05:14:44;;;;;;;16.90;15.07;;;;;;;;;;5040368;28;20264;-42
2021/04/10 05:17:09;;;;;;;17.45;15.20;;;;;;;;;;5049266;28;20187;-42
2021/04/10 05:19:34;;;;;;;15.90;14.20;;;;;;;;;;5048909;28;20594;-43
2021/04/10 05:21:59;;;;;;;14.37;12.97;;;;;;;;;;5054276;28;20178;-43
2021/04/10 05:24:25;;;;;;;14.50;11.67;;;;;;;;;;5070894;28;20175;-43
2021/04/10 05:26:50;;;;;;;14.33;12.60;;;;;;;;;;5045551;28;20760;-41
2021/04/10 05:29:15;;;;;;;13.87;12.37;;;;;;;;;;5044012;28;20269;-42
2021/04/10 05:31:40;;;;;;;14.13;12.73;;;;;;;;;;5035854;28;20196;-41
2021/04/10 05:34:05;;;;;;;13.60;12.30;;;;;;;;;;5045692;28;20179;-42
2021/04/10 05:36:30;;;;;;;14.10;12.70;;;;;;;;;;5048173;28;20161;-42
2021/04/10 05:38:56;;;;;;;13.90;12.60;;;;;;;;;;5044897;28;20658;-42
2021/04/10 05:41:21;;;;;;;19.45;12.77;;;;;;;;;;5048051;28;20673;-41
2021/04/10 05:43:46;;;;;;;14.20;12.70;;;;;;;;;;5050319;28;20240;-42
2021/04/10 05:46:11;;;;;;;14.13;12.80;;;;;;;;;;5050036;28;20180;-41
2021/04/10 05:48:36;;;;;;;14.40;13.03;;;;;;;;;;5049607;28;20179;-42
2021/04/10 05:51:02;;;;;;;14.20;12.70;;;;;;;;;;5047737;28;20172;-42
2021/04/10 05:53:27;;;;;;;15.00;13.10;;;;;;;;;;5047346;28;20244;-42
2021/04/10 05:55:53;;;;;;;14.60;13.10;;;;;;;;;;5045976;28;20230;-42
2021/04/10 05:58:18;;;;;;;14.67;13.17;;;;;;;;;;5045446;28;20841;-42
2021/04/10 06:00:43;;;;;;;15.32;13.82;;;;;;;;;;5047827;28;20631;-42
2021/04/10 06:03:08;;;;;;;16.08;14.05;;;;;;;;;;5045770;28;20197;-43
2021/04/10 06:05:34;;;;;;;15.23;13.47;;;;;;;;;;5045973;28;20176;-43
2021/04/10 06:07:59;;;;;;;14.30;12.90;;;;;;;;;;5049104;28;20242;-43
2021/04/10 06:10:24;;;;;;;14.73;13.18;;;;;;;;;;5047776;28;20316;-43
2021/04/10 06:12:49;;;;;;;14.43;13.03;;;;;;;;;;5034069;28;20210;-42
2021/04/10 06:15:18;;;;;;;12.57;11.37;;;;;;;;;;5044503;28;20639;-42
2021/04/10 06:17:43;;;;;;;14.80;13.30;;;;;;;;;;5047415;28;20727;-43
2021/04/10 06:20:09;;;;;;;15.27;12.87;;;;;;;;;;5047083;28;20614;-43
2021/04/10 06:22:34;;;;;;;14.23;12.73;;;;;;;;;;5045167;28;20183;-43
2021/04/10 06:24:59;;;;;;;14.03;12.70;;;;;;;;;;5033933;28;20197;-43
2021/04/10 06:27:24;;;;;;;13.03;11.83;;;;;;;;;;5037637;28;20257;-44
2021/04/10 06:29:50;;;;;;;13.80;12.37;;;;;;;;;;5039425;28;20183;-43
2021/04/10 06:32:15;;;;;;;13.60;12.37;;;;;;;;;;5043232;28;20231;-42
2021/04/10 06:34:40;;;;;;;13.47;12.17;;;;;;;;;;5038721;28;20170;-43
2021/04/10 06:37:05;;;;;;;14.83;13.30;;;;;;;;;;5042357;28;20175;-44
2021/04/10 06:39:30;;;;;;;14.87;13.27;;;;;;;;;;5044914;28;20642;-48
2021/04/10 06:41:56;;;;;;;14.57;13.10;;;;;;;;;;5047132;28;20279;-42
2021/04/10 06:44:21;;;;;;;15.23;13.73;;;;;;;;;;5043227;28;20187;-42
2021/04/10 06:46:47;;;;;;;14.57;13.20;;;;;;;;;;5041036;28;20212;-41
2021/04/10 06:49:13;;;;;;;14.53;13.13;;;;;;;;;;5044836;28;20568;-43
2021/04/10 06:51:38;;;;;;;14.47;13.07;;;;;;;;;;5045021;28;21271;-44
2021/04/10 06:54:06;;;;;;;13.50;12.10;;;;;;;;;;5045485;28;20186;-43
2021/04/10 06:56:31;;;;;;;14.07;12.07;;;;;;;;;;5041104;28;20249;-43
2021/04/10 06:59:23;;;;;;;13.00;11.40;;;;;;;;;;5047945;28;20614;-43
2021/04/10 07:01:49;;;;;;;12.97;11.77;;;;;;;;;;5038382;28;20188;-43
2021/04/10 07:04:15;;;;;;;13.17;11.47;;;;;;;;;;5044401;28;20610;-43
2021/04/10 07:06:40;;;;;;;12.77;11.57;;;;;;;;;;5045841;28;21027;-42
2021/04/10 07:09:06;;;;;;;14.20;12.10;;;;;;;;;;5038734;28;20189;-42
2021/04/10 07:11:32;;;;;;;14.53;11.67;;;;;;;;;;5044294;28;20239;-44
2021/04/10 07:13:57;;;;;;;13.73;12.23;;;;;;;;;;5041949;28;20604;-45
2021/04/10 07:16:23;;;;;;;13.27;12.07;;;;;;;;;;5050316;28;20591;-44
2021/04/10 07:18:48;;;;;;;12.47;11.20;;;;;;;;;;5048793;28;20215;-43
2021/04/10 07:21:17;;;;;;;12.97;11.00;;;;;;;;;;5048929;28;20601;-46
2021/04/10 07:23:43;;;;;;;13.33;12.07;;;;;;;;;;5048028;28;20694;-42
2021/04/10 07:26:08;;;;;;;12.67;11.37;;;;;;;;;;5057920;28;20635;-43
2021/04/10 07:28:33;;;;;;;12.30;11.10;;;;;;;;;;5045932;28;20667;-42
2021/04/10 07:31:00;;;;;;;11.57;10.53;;;;;;;;;;5043163;28;20560;-42
2021/04/10 07:33:29;;;;;;;11.80;10.70;;;;;;;;;;5045671;28;20212;-43
2021/04/10 07:35:54;;;;;;;11.80;10.70;;;;;;;;;;5045011;28;20596;-43
2021/04/10 07:38:26;;;;;;;11.50;10.50;;;;;;;;;;5047446;28;20654;-44
2021/04/10 07:40:51;;;;;;;11.90;10.43;;;;;;;;;;5046258;28;20544;-43
2021/04/10 07:43:29;;;;;;;13.23;11.93;;;;;;;;;;5042491;28;20607;-43
2021/04/10 07:46:09;;;;;;;11.63;10.43;;;;;;;;;;5044298;28;20445;-43
2021/04/10 07:48:34;;;;;;;12.37;11.17;;;;;;;;;;5046919;28;20645;-43
2021/04/10 07:51:00;;;;;;;12.10;10.60;;;;;;;;;;5046033;28;21190;-44
2021/04/10 07:53:26;;;;;;;13.40;12.07;;;;;;;;;;5046277;28;20207;-43
2021/04/10 07:55:52;;;;;;;13.37;11.97;;;;;;;;;;5041505;28;20247;-43
2021/04/10 07:58:17;;;;;;;13.17;11.87;;;;;;;;;;5041345;28;20619;-43
2021/04/10 08:00:43;;;;;;;12.02;10.93;;;;;;;;;;5038857;28;20602;-42
2021/04/10 08:03:20;;;;;;;13.60;12.43;;;;;;;;;;5034192;28;20188;-43
2021/04/10 08:05:45;;;;;;;12.13;10.93;;;;;;;;;;5037123;28;20703;-43
2021/04/10 08:08:10;;;;;;;12.80;11.60;;;;;;;;;;5047265;28;20578;-42
2021/04/10 08:10:35;;;;;;;12.82;11.63;;;;;;;;;;5046869;28;20195;-43
2021/04/10 08:13:09;;;;;;;13.13;11.88;;;;;;;;;;5047450;28;20205;-42
2021/04/10 08:15:35;;;;;;;13.37;12.17;;;;;;;;;;5047181;28;20175;-42
2021/04/10 08:18:00;;;;;;;16.40;14.80;;;;;;;;;;5047670;28;20563;-43
2021/04/10 08:20:26;;;;;;;25.43;22.80;;;;;;;;;;5047201;28;20696;-43
2021/04/10 08:22:52;;;;;;;20.93;18.90;;;;;;;;;;5046543;28;20176;-43
2021/04/10 08:25:31;;;;;;;19.33;17.43;;;;;;;;;;5047192;28;21144;-42
2021/04/10 08:27:57;;;;;;;21.20;18.90;;;;;;;;;;5048967;28;20589;-43
2021/04/10 08:30:22;;;;;;;45.60;34.50;;;;;;;;;;5050889;28;21130;-43
2021/04/10 08:32:47;;;;;;;15.63;14.07;;;;;;;;;;5050825;28;20640;-44
2021/04/10 08:35:13;;;;;;;12.77;11.47;;;;;;;;;;5050375;28;20194;-43
2021/04/10 08:37:39;;;;;;;14.17;12.87;;;;;;;;;;5051082;28;20176;-43
2021/04/10 08:40:05;;;;;;;12.97;11.87;;;;;;;;;;5050465;28;20219;-42
2021/04/10 08:42:30;;;;;;;13.90;12.60;;;;;;;;;;5050057;28;21087;-43
2021/04/10 08:44:56;;;;;;;13.70;12.50;;;;;;;;;;5050815;28;20202;-44
2021/04/10 08:47:21;;;;;;;14.63;13.17;;;;;;;;;;5050184;28;20182;-44
2021/04/10 08:49:48;;;;;;;14.40;12.93;;;;;;;;;;5050500;28;20187;-44
2021/04/10 08:52:18;;;;;;;14.10;12.70;;;;;;;;;;5050170;28;20214;-43
2021/04/10 08:54:45;;;;;;;13.57;12.27;;;;;;;;;;5039352;28;20594;-44
2021/04/10 08:57:11;;;;;;;13.60;12.20;;;;;;;;;;5049876;28;20594;-44
2021/04/10 08:59:54;;;;;;;18.43;16.47;;;;;;;;;;5046652;28;20592;-43
2021/04/10 09:02:20;;;;;;;14.13;12.93;;;;;;;;;;5050532;28;20190;-43
2021/04/10 09:04:55;;;;;;;14.47;13.07;;;;;;;;;;5050375;28;20588;-43
2021/04/10 09:07:40;;;;;;;13.80;12.57;;;;;;;;;;5050066;28;20266;-44
2021/04/10 09:10:05;;;;;;;14.00;12.70;;;;;;;;;;5049776;28;20606;-43
2021/04/10 09:12:30;;;;;;;13.33;12.13;;;;;;;;;;5049953;28;20644;-44
2021/04/10 09:15:04;;;;;;;13.70;12.50;;;;;;;;;;5050493;28;20183;-43
2021/04/10 09:17:48;;;;;;;13.20;12.10;;;;;;;;;;5049777;28;20661;-41
2021/04/10 09:20:14;;;;;;;13.97;12.73;;;;;;;;;;5049657;28;20938;-42
2021/04/10 09:22:39;;;;;;;14.57;13.20;;;;;;;;;;5050131;28;20590;-42
2021/04/10 09:25:05;;;;;;;13.83;12.60;;;;;;;;;;5049911;28;20177;-42
2021/04/10 09:27:30;;;;;;;14.63;13.30;;;;;;;;;;5049183;28;20197;-43
2021/04/10 09:29:55;;;;;;;16.70;13.90;;;;;;;;;;5049077;28;20204;-43
2021/04/10 09:32:36;;;;;;;16.03;14.70;;;;;;;;;;5049645;28;20293;-43
2021/04/10 09:35:05;;;;;;;15.53;14.10;;;;;;;;;;5049680;28;20164;-42
2021/04/10 09:37:30;;;;;;;14.70;13.40;;;;;;;;;;5049185;28;20957;-43
2021/04/10 09:40:26;;;;;;;14.27;12.88;;;;;;;;;;5049260;28;20578;-43
2021/04/10 09:43:13;;;;;;;13.37;12.27;;;;;;;;;;5049727;28;20175;-43
2021/04/10 09:45:38;;;;;;;14.30;13.00;;;;;;;;;;5049906;28;20574;-43
2021/04/10 09:48:04;;;;;;;15.43;13.93;;;;;;;;;;5049224;28;20595;-43
2021/04/10 09:50:39;;;;;;;13.63;12.40;;;;;;;;;;5049442;28;20761;-43
2021/04/10 09:53:09;;;;;;;14.03;12.60;;;;;;;;;;5049508;28;20208;-43
2021/04/10 09:55:38;;;;;;;14.40;13.10;;;;;;;;;;5049294;28;21220;-43
2021/04/10 09:58:04;;;;;;;14.33;13.03;;;;;;;;;;5049034;28;20683;-43
2021/04/10 10:00:30;;;;;;;14.03;12.83;;;;;;;;;;5049132;28;20602;-43
2021/04/10 10:02:56;;;;;;;14.33;13.13;;;;;;;;;;5048389;28;20600;-43
2021/04/10 10:05:22;;;;;;;14.30;13.10;;;;;;;;;;5048949;28;20583;-44
2021/04/10 10:07:47;;;;;;;14.33;13.03;;;;;;;;;;5049444;28;20174;-43
2021/04/10 10:10:13;;;;;;;15.13;13.67;;;;;;;;;;5048375;28;20218;-44
2021/04/10 10:12:38;;;;;;;14.73;13.40;;;;;;;;;;5049139;28;20651;-44
2021/04/10 10:15:04;;;;;;;14.30;13.00;;;;;;;;;;5048780;28;20384;-44
2021/04/10 10:17:29;;;;;;;15.17;13.77;;;;;;;;;;5047133;28;20181;-44
2021/04/10 10:20:20;;;;;;;14.50;13.30;;;;;;;;;;5048357;28;20594;-43
2021/04/10 10:22:46;;;;;;;15.10;13.90;;;;;;;;;;5047409;28;20268;-43
2021/04/10 10:25:11;;;;;;;15.15;13.85;;;;;;;;;;5047743;28;20683;-43
2021/04/10 10:27:37;;;;;;;14.80;13.40;;;;;;;;;;5048438;28;20261;-43
2021/04/10 10:30:11;;;;;;;14.27;12.90;;;;;;;;;;5048244;28;20181;-43
2021/04/10 10:32:36;;;;;;;14.93;13.30;;;;;;;;;;5048278;28;20648;-44
2021/04/10 10:35:08;;;;;;;15.70;14.40;;;;;;;;;;5048520;28;20625;-44
2021/04/10 10:37:33;;;;;;;14.00;12.80;;;;;;;;;;5048566;28;20536;-44
2021/04/10 10:39:58;;;;;;;15.63;14.03;;;;;;;;;;5048601;28;20638;-44
2021/04/10 10:42:25;;;;;;;16.67;14.80;;;;;;;;;;5048110;28;20185;-43
2021/04/10 10:44:50;;;;;;;15.33;13.93;;;;;;;;;;5047850;28;20192;-43
2021/04/10 10:47:15;;;;;;;14.93;13.63;;;;;;;;;;5047742;28;20595;-44
2021/04/10 10:49:40;;;;;;;15.40;14.00;;;;;;;;;;5048390;28;20518;-43
2021/04/10 10:52:06;;;;;;;14.27;12.90;;;;;;;;;;5048298;28;20280;-44
2021/04/10 10:54:32;;;;;;;15.27;13.87;;;;;;;;;;5048296;28;20177;-43
2021/04/10 10:56:57;;;;;;;15.50;14.17;;;;;;;;;;5047086;28;20216;-44
2021/04/10 10:59:26;;;;;;;14.50;13.20;;;;;;;;;;5048155;28;20576;-43
2021/04/10 11:01:51;;;;;;;14.17;12.83;;;;;;;;;;5048079;28;20548;-43
2021/04/10 11:04:26;;;;;;;17.13;15.53;;;;;;;;;;5045030;28;20603;-43
2021/04/10 11:06:58;;;;;;;14.10;12.90;;;;;;;;;;5043122;28;20322;-42
2021/04/10 11:09:24;;;;;;;15.73;14.23;;;;;;;;;;5045922;28;20601;-43
2021/04/10 11:11:51;;;;;;;16.20;14.70;;;;;;;;;;5043635;28;20618;-42
2021/04/10 11:14:24;;;;;;;14.67;13.40;;;;;;;;;;5045940;28;21134;-44
2021/04/10 11:16:50;;;;;;;13.80;12.60;;;;;;;;;;5047088;28;20632;-43
2021/04/10 11:19:24;;;;;;;14.60;13.10;;;;;;;;;;5047372;28;20641;-43
2021/04/10 11:21:50;;;;;;;16.90;15.13;;;;;;;;;;5043519;28;20186;-46
2021/04/10 11:24:15;;;;;;;15.57;14.33;;;;;;;;;;5047418;28;20606;-43
2021/04/10 11:26:45;;;;;;;16.77;15.20;;;;;;;;;;5043553;28;20177;-43
2021/04/10 11:29:19;;;;;;;14.90;13.50;;;;;;;;;;5047221;28;20709;-43
2021/04/10 11:32:02;;;;;;;15.03;13.73;;;;;;;;;;5047817;28;20637;-42
2021/04/10 11:34:28;;;;;;;15.07;13.77;;;;;;;;;;5046663;28;20604;-43
2021/04/10 11:36:56;;;;;;;15.43;14.23;;;;;;;;;;5046206;28;21048;-43
2021/04/10 11:39:22;;;;;;;14.37;13.13;;;;;;;;;;5036444;28;20619;-42
2021/04/10 11:41:47;;;;;;;15.87;14.53;;;;;;;;;;5043663;28;20666;-42
2021/04/10 11:44:13;;;;;;;14.03;12.93;;;;;;;;;;5037566;28;20215;-42
2021/04/10 11:46:38;;;;;;;15.40;13.97;;;;;;;;;;5041461;28;20206;-43
2021/04/10 11:49:03;;;;;;;15.40;14.10;;;;;;;;;;5045509;28;20179;-43
2021/04/10 11:51:28;;;;;;;15.93;14.50;;;;;;;;;;5043853;28;20213;-44
2021/04/10 11:53:53;;;;;;;16.53;15.20;;;;;;;;;;5039891;28;20549;-43
2021/04/10 11:56:22;;;;;;;15.63;14.25;;;;;;;;;;5030785;28;20239;-43
2021/04/10 11:58:47;;;;;;;15.90;14.47;;;;;;;;;;5043041;28;20180;-43
2021/04/10 12:01:13;;;;;;;16.00;14.50;;;;;;;;;;5044497;28;20604;-43
2021/04/10 12:03:48;;;;;;;15.10;13.80;;;;;;;;;;5046280;28;20220;-43
2021/04/10 12:06:26;;;;;;;16.00;14.60;;;;;;;;;;5039686;28;20194;-43
2021/04/10 12:08:51;;;;;;;15.30;14.00;;;;;;;;;;5047299;28;21005;-44
2021/04/10 12:11:17;;;;;;;15.83;14.43;;;;;;;;;;5046617;28;20694;-42
2021/04/10 12:13:42;;;;;;;16.43;14.37;;;;;;;;;;5045142;28;20226;-43
2021/04/10 12:16:07;;;;;;;15.53;14.20;;;;;;;;;;5039719;28;20269;-42
2021/04/10 12:18:33;;;;;;;14.90;13.70;;;;;;;;;;5049439;28;20174;-44
2021/04/10 12:20:59;;;;;;;15.83;14.40;;;;;;;;;;5065316;28;20172;-43
2021/04/10 12:23:24;;;;;;;15.67;14.30;;;;;;;;;;5048394;28;20217;-43
2021/04/10 12:25:50;;;;;;;15.20;13.73;;;;;;;;;;5048860;28;20631;-43
2021/04/10 12:28:16;;;;;;;16.07;14.67;;;;;;;;;;5047526;28;20184;-43
2021/04/10 12:30:41;;;;;;;16.40;15.03;;;;;;;;;;5048550;28;20619;-43
2021/04/10 12:33:07;;;;;;;16.37;15.07;;;;;;;;;;5047765;28;20678;-44
2021/04/10 12:35:32;;;;;;;15.53;14.20;;;;;;;;;;5048618;28;20419;-42
2021/04/10 12:37:57;;;;;;;17.43;15.90;;;;;;;;;;5043075;28;20176;-43
2021/04/10 12:40:22;;;;;;;16.63;15.23;;;;;;;;;;5039162;28;20292;-43
2021/04/10 12:42:48;;;;;;;16.40;15.00;;;;;;;;;;5042240;28;20177;-43
2021/04/10 12:45:14;;;;;;;15.80;14.40;;;;;;;;;;5034817;28;20180;-44
2021/04/10 12:47:39;;;;;;;16.50;14.90;;;;;;;;;;5041123;28;20195;-43
2021/04/10 12:50:05;;;;;;;15.63;14.07;;;;;;;;;;5038496;28;20179;-43
2021/04/10 12:52:30;;;;;;;16.00;14.60;;;;;;;;;;5038331;28;20258;-42
2021/04/10 12:54:56;;;;;;;16.03;14.63;;;;;;;;;;5047069;28;21593;-43
2021/04/10 12:57:22;;;;;;;14.87;13.57;;;;;;;;;;5046778;28;20182;-42
2021/04/10 12:59:48;;;;;;;15.33;14.03;;;;;;;;;;5047649;28;20486;-42
2021/04/10 13:02:13;;;;;;;16.90;15.30;;;;;;;;;;5047468;28;21114;-42
2021/04/10 13:04:38;;;;;;;17.10;15.60;;;;;;;;;;5047220;28;20279;-42
2021/04/10 13:07:04;;;;;;;16.13;14.73;;;;;;;;;;5046940;28;20728;-42
2021/04/10 13:09:29;;;;;;;15.07;13.77;;;;;;;;;;5046959;28;20194;-43
2021/04/10 13:11:54;;;;;;;16.10;14.80;;;;;;;;;;5047052;28;20216;-43
2021/04/10 13:14:20;;;;;;;15.20;13.90;;;;;;;;;;5046223;28;20182;-43
2021/04/10 13:16:46;;;;;;;16.83;15.33;;;;;;;;;;5047029;28;20176;-43
2021/04/10 13:19:11;;;;;;;16.07;14.70;;;;;;;;;;5046501;28;20661;-44
2021/04/10 13:21:37;;;;;;;15.70;14.30;;;;;;;;;;5047043;28;20599;-44
2021/04/10 13:24:02;;;;;;;17.67;16.17;;;;;;;;;;5047152;28;20546;-43
2021/04/10 13:26:27;;;;;;;17.87;16.47;;;;;;;;;;5046443;28;20712;-43
2021/04/10 13:28:52;;;;;;;17.00;15.40;;;;;;;;;;5047114;28;20356;-43
2021/04/10 13:31:18;;;;;;;17.13;15.63;;;;;;;;;;5046303;28;20553;-44
2021/04/10 13:33:43;;;;;;;14.63;13.50;;;;;;;;;;5047532;28;20201;-44
2021/04/10 13:36:09;;;;;;;17.03;15.53;;;;;;;;;;5048732;28;20176;-51
2021/04/10 13:38:34;;;;;;;15.90;14.50;;;;;;;;;;5046887;28;20187;-44
2021/04/10 13:41:01;;;;;;;16.20;14.70;;;;;;;;;;5047397;28;20207;-44
2021/04/10 13:43:26;;;;;;;17.00;15.40;;;;;;;;;;5046245;28;20175;-43
2021/04/10 13:45:51;;;;;;;16.90;15.50;;;;;;;;;;5041779;28;20590;-43
2021/04/10 13:48:16;;;;;;;18.70;15.60;;;;;;;;;;5045685;28;20564;-43
2021/04/10 13:50:41;;;;;;;16.77;15.27;;;;;;;;;;5035945;28;20190;-42
2021/04/10 13:53:07;;;;;;;17.10;15.63;;;;;;;;;;5045498;28;20259;-43
2021/04/10 13:55:32;;;;;;;18.50;16.90;;;;;;;;;;5039002;28;20652;-43
2021/04/10 13:57:57;;;;;;;16.93;15.43;;;;;;;;;;5042361;28;20181;-43
2021/04/10 14:00:22;;;;;;;18.97;15.00;;;;;;;;;;5043663;28;20177;-42
2021/04/10 14:02:47;;;;;;;16.80;15.33;;;;;;;;;;5035694;28;20249;-42
2021/04/10 14:05:14;;;;;;;18.50;17.00;;;;;;;;;;5043463;28;20185;-43
2021/04/10 14:07:42;;;;;;;19.70;18.00;;;;;;;;;;5038025;28;20183;-41
2021/04/10 14:10:10;;;;;;;16.73;15.23;;;;;;;;;;5046593;28;20594;-42
2021/04/10 14:12:35;;;;;;;20.40;18.60;;;;;;;;;;5034656;28;20739;-43
2021/04/10 14:15:01;;;;;;;19.50;17.70;;;;;;;;;;5046924;28;20644;-43
2021/04/10 14:17:26;;;;;;;20.13;18.37;;;;;;;;;;5047593;28;20238;-43